createdAt,value
2023-04-15T00:00:09.924Z,98414.00
2023-04-15T00:02:48.457Z,98406.00
2023-04-15T00:05:17.457Z,98406.00
2023-04-15T00:07:47.112Z,98404.00
2023-04-15T00:10:15.410Z,98406.00
2023-04-15T00:12:43.319Z,98408.00
2023-04-15T00:15:12.548Z,98409.00
2023-04-15T00:17:41.145Z,98405.00
2023-04-15T00:20:11.737Z,98406.00
2023-04-15T00:22:39.681Z,98396.00
2023-04-15T00:25:08.132Z,98395.00
2023-04-15T00:27:36.160Z,98398.00
2023-04-15T00:30:05.278Z,98392.00
2023-04-15T00:32:33.226Z,98394.00
2023-04-15T00:35:01.172Z,98393.00
2023-04-15T00:37:30.473Z,98396.00
2023-04-15T00:39:58.492Z,98382.00
2023-04-15T00:42:27.103Z,98383.00
2023-04-15T00:44:55.311Z,98380.00
2023-04-15T00:47:23.759Z,98378.00
2023-04-15T00:49:52.109Z,98377.00
2023-04-15T00:52:20.003Z,98377.00
2023-04-15T00:54:49.362Z,98378.00
2023-04-15T00:57:17.378Z,98374.00
2023-04-15T00:59:45.301Z,98368.00
2023-04-15T01:02:14.327Z,98358.00
2023-04-15T01:04:43.074Z,98362.00
2023-04-15T01:07:10.991Z,98362.00
2023-04-15T01:09:39.038Z,98357.00
2023-04-15T01:12:11.316Z,98363.00
2023-04-15T01:14:39.520Z,98355.00
2023-04-15T01:17:07.485Z,98351.00
2023-04-15T01:19:35.665Z,98344.00
2023-04-15T01:22:05.281Z,98331.00
2023-04-15T01:24:34.146Z,98344.00
2023-04-15T01:27:04.533Z,98362.00
2023-04-15T01:29:34.073Z,98364.00
2023-04-15T01:32:02.024Z,98356.00
2023-04-15T01:34:29.935Z,98349.00
2023-04-15T01:36:57.815Z,98336.00
2023-04-15T01:39:25.718Z,98315.00
2023-04-15T01:41:58.257Z,98334.00
2023-04-15T01:44:27.598Z,98348.00
2023-04-15T01:46:55.614Z,98348.00
2023-04-15T01:49:23.960Z,98346.00
2023-04-15T01:51:51.916Z,98337.00
2023-04-15T01:54:19.845Z,98330.00
2023-04-15T01:56:47.746Z,98334.00
2023-04-15T01:59:15.736Z,98335.00
2023-04-15T02:01:45.226Z,98335.00
2023-04-15T02:04:16.603Z,98330.00
2023-04-15T02:06:45.181Z,98332.00
2023-04-15T02:09:13.475Z,98318.00
2023-04-15T02:11:41.370Z,98322.00
2023-04-15T02:14:09.485Z,98313.00
2023-04-15T02:16:37.480Z,98313.00
2023-04-15T02:19:06.825Z,98300.00
2023-04-15T02:21:35.375Z,98298.00
2023-04-15T02:24:04.355Z,98312.00
2023-04-15T02:26:33.353Z,98303.00
2023-04-15T02:29:01.800Z,98302.00
2023-04-15T02:31:29.855Z,98312.00
2023-04-15T02:33:57.876Z,98312.00
2023-04-15T02:36:27.118Z,98312.00
2023-04-15T02:38:55.034Z,98309.00
2023-04-15T02:41:27.216Z,98317.00
2023-04-15T02:43:55.264Z,98321.00
2023-04-15T02:46:23.276Z,98325.00
2023-04-15T02:48:53.274Z,98328.00
2023-04-15T02:51:23.495Z,98321.00
2023-04-15T02:53:52.758Z,98317.00
2023-04-15T02:56:20.839Z,98311.00
2023-04-15T02:58:50.560Z,98310.00
2023-04-15T03:01:18.703Z,98312.00
2023-04-15T03:03:46.928Z,98309.00
2023-04-15T03:06:15.010Z,98305.00
2023-04-15T03:08:42.958Z,98309.00
2023-04-15T03:11:16.176Z,98316.00
2023-04-15T03:13:44.415Z,98303.00
2023-04-15T03:16:23.459Z,98307.00
2023-04-15T03:18:51.498Z,98312.00
2023-04-15T03:21:21.095Z,98307.00
2023-04-15T03:23:50.108Z,98318.00
2023-04-15T03:26:30.418Z,98307.00
2023-04-15T03:29:02.442Z,98313.00
2023-04-15T03:31:30.634Z,98308.00
2023-04-15T03:33:58.532Z,98311.00
2023-04-15T03:36:27.242Z,98305.00
2023-04-15T03:38:56.070Z,98291.00
2023-04-15T03:41:24.058Z,98294.00
2023-04-15T03:43:53.357Z,98287.00
2023-04-15T03:46:21.588Z,98287.00
2023-04-15T03:48:49.513Z,98293.00
2023-04-15T03:51:17.415Z,98297.00
2023-04-15T03:53:45.400Z,98299.00
2023-04-15T03:56:13.305Z,98287.00
2023-04-15T03:58:41.436Z,98294.00
2023-04-15T04:01:10.781Z,98288.00
2023-04-15T04:03:38.917Z,98290.00
2023-04-15T04:06:07.178Z,98283.00
2023-04-15T04:08:35.162Z,98285.00
2023-04-15T04:11:03.064Z,98288.00
2023-04-15T04:13:31.114Z,98286.00
2023-04-15T04:15:59.202Z,98286.00
2023-04-15T04:18:28.520Z,98293.00
2023-04-15T04:20:56.523Z,98293.00
2023-04-15T04:23:24.498Z,98304.00
2023-04-15T04:25:52.611Z,98298.00
2023-04-15T04:28:20.486Z,98299.00
2023-04-15T04:30:48.583Z,98302.00
2023-04-15T04:33:16.505Z,98289.00
2023-04-15T04:35:45.772Z,98293.00
2023-04-15T04:38:13.693Z,98296.00
2023-04-15T04:40:41.764Z,98296.00
2023-04-15T04:43:10.047Z,98304.00
2023-04-15T04:45:38.049Z,98296.00
2023-04-15T04:48:07.204Z,98298.00
2023-04-15T04:50:35.571Z,98295.00
2023-04-15T04:53:04.822Z,98278.00
2023-04-15T04:55:32.894Z,98269.00
2023-04-15T04:58:01.353Z,98254.00
2023-04-15T05:02:01.946Z,98270.00
2023-04-15T05:04:31.178Z,98271.00
2023-04-15T05:06:59.288Z,98269.00
2023-04-15T05:09:29.413Z,98272.00
2023-04-15T05:11:57.339Z,98269.00
2023-04-15T05:14:25.267Z,98285.00
2023-04-15T05:16:53.048Z,98279.00
2023-04-15T05:19:20.868Z,98269.00
2023-04-15T05:21:48.878Z,98268.00
2023-04-15T05:24:18.186Z,98280.00
2023-04-15T05:26:47.333Z,98286.00
2023-04-15T05:29:15.161Z,98287.00
2023-04-15T05:31:43.604Z,98285.00
2023-04-15T05:34:12.494Z,98285.00
2023-04-15T05:36:40.475Z,98290.00
2023-04-15T05:39:09.042Z,98297.00
2023-04-15T05:41:38.030Z,98304.00
2023-04-15T05:44:07.342Z,98305.00
2023-04-15T05:46:35.255Z,98296.00
2023-04-15T05:49:03.271Z,98285.00
2023-04-15T05:51:31.381Z,98295.00
2023-04-15T05:53:59.231Z,98287.00
2023-04-15T05:56:27.223Z,98293.00
2023-04-15T05:58:55.066Z,98286.00
2023-04-15T06:01:24.374Z,98291.00
2023-04-15T06:03:52.382Z,98294.00
2023-04-15T06:06:20.385Z,98295.00
2023-04-15T06:08:48.214Z,98293.00
2023-04-15T06:11:16.269Z,98281.00
2023-04-15T06:13:44.122Z,98296.00
2023-04-15T06:16:11.997Z,98309.00
2023-04-15T06:18:41.274Z,98306.00
2023-04-15T06:21:09.136Z,98309.00
2023-04-15T06:23:41.043Z,98312.00
2023-04-15T06:26:09.056Z,98314.00
2023-04-15T06:28:36.949Z,98322.00
2023-04-15T06:31:04.918Z,98327.00
2023-04-15T06:33:33.321Z,98320.00
2023-04-15T06:36:02.510Z,98333.00
2023-04-15T06:38:30.453Z,98328.00
2023-04-15T06:40:58.361Z,98330.00
2023-04-15T06:43:26.250Z,98335.00
2023-04-15T06:45:54.098Z,98309.00
2023-04-15T06:48:22.091Z,98336.00
2023-04-15T06:50:50.688Z,98333.00
2023-04-15T06:53:20.203Z,98334.00
2023-04-15T06:55:48.110Z,98337.00
2023-04-15T06:58:16.245Z,98338.00
2023-04-15T07:00:44.869Z,98332.00
2023-04-15T07:03:13.813Z,98335.00
2023-04-15T07:05:42.223Z,98335.00
2023-04-15T07:08:10.278Z,98342.00
2023-04-15T07:10:39.491Z,98341.00
2023-04-15T07:13:08.758Z,98343.00
2023-04-15T07:15:36.648Z,98341.00
2023-04-15T07:18:04.752Z,98349.00
2023-04-15T07:20:33.006Z,98349.00
2023-04-15T07:23:00.825Z,98345.00
2023-04-15T07:25:28.812Z,98351.00
2023-04-15T07:27:58.221Z,98347.00
2023-04-15T07:30:26.198Z,98352.00
2023-04-15T07:32:54.126Z,98353.00
2023-04-15T07:35:22.164Z,98350.00
2023-04-15T07:37:50.073Z,98352.00
2023-04-15T07:40:18.132Z,98339.00
2023-04-15T07:42:47.104Z,98344.00
2023-04-15T07:45:16.939Z,98348.00
2023-04-15T07:47:44.948Z,98356.00
2023-04-15T07:50:12.846Z,98357.00
2023-04-15T07:52:40.750Z,98362.00
2023-04-15T07:55:10.046Z,98359.00
2023-04-15T07:57:38.418Z,98359.00
2023-04-15T08:00:08.241Z,98373.00
2023-04-15T08:02:44.077Z,98371.00
2023-04-15T08:05:12.085Z,98381.00
2023-04-15T08:07:40.648Z,98379.00
2023-04-15T08:10:09.978Z,98367.00
2023-04-15T08:12:37.971Z,98387.00
2023-04-15T08:15:08.091Z,98381.00
2023-04-15T08:17:36.036Z,98377.00
2023-04-15T08:20:06.760Z,98379.00
2023-04-15T08:22:34.608Z,98383.00
2023-04-15T08:25:03.446Z,98385.00
2023-04-15T08:27:31.630Z,98397.00
2023-04-15T08:29:59.537Z,98404.00
2023-04-15T08:32:27.585Z,98405.00
2023-04-15T08:34:55.490Z,98401.00
2023-04-15T08:37:24.695Z,98396.00
2023-04-15T08:39:52.700Z,98397.00
2023-04-15T08:42:28.629Z,98398.00
2023-04-15T08:44:57.441Z,98400.00
2023-04-15T08:47:30.194Z,98402.00
2023-04-15T08:49:59.342Z,98409.00
2023-04-15T08:52:29.121Z,98413.00
2023-04-15T08:55:00.688Z,98395.00
2023-04-15T08:57:30.394Z,98415.00
2023-04-15T08:59:58.534Z,98415.00
2023-04-15T09:02:28.127Z,98420.00
2023-04-15T09:04:56.759Z,98424.00
2023-04-15T09:07:24.833Z,98417.00
2023-04-15T09:09:54.150Z,98425.00
2023-04-15T09:12:22.318Z,98421.00
2023-04-15T09:14:50.318Z,98417.00
2023-04-15T09:17:22.262Z,98426.00
2023-04-15T09:19:50.370Z,98423.00
2023-04-15T09:22:18.317Z,98412.00
2023-04-15T09:24:46.426Z,98431.00
2023-04-15T09:27:17.925Z,98428.00
2023-04-15T09:29:45.974Z,98435.00
2023-04-15T09:32:15.534Z,98440.00
2023-04-15T09:34:44.510Z,98446.00
2023-04-15T09:37:24.553Z,98442.00
2023-04-15T09:39:59.302Z,98447.00
2023-04-15T09:42:28.691Z,98455.00
2023-04-15T09:44:56.642Z,98460.00
2023-04-15T09:47:32.100Z,98456.00
2023-04-15T09:50:02.325Z,98460.00
2023-04-15T09:52:31.054Z,98442.00
2023-04-15T09:55:00.840Z,98454.00
2023-04-15T09:57:37.669Z,98460.00
2023-04-15T10:00:08.052Z,98453.00
2023-04-15T10:02:38.155Z,98460.00
2023-04-15T10:05:08.524Z,98460.00
2023-04-15T10:07:36.447Z,98460.00
2023-04-15T10:10:06.242Z,98464.00
2023-04-15T10:12:37.917Z,98460.00
2023-04-15T10:15:08.008Z,98468.00
2023-04-15T10:17:38.113Z,98470.00
2023-04-15T10:20:09.329Z,98478.00
2023-04-15T10:22:38.826Z,98477.00
2023-04-15T10:25:08.478Z,98473.00
2023-04-15T10:27:37.946Z,98488.00
2023-04-15T10:30:09.145Z,98486.00
2023-04-15T10:32:38.554Z,98495.00
2023-04-15T10:35:09.425Z,98493.00
2023-04-15T10:37:39.556Z,98499.00
2023-04-15T10:40:28.343Z,98500.00
2023-04-15T10:43:00.026Z,98495.00
2023-04-15T10:45:29.793Z,98502.00
2023-04-15T10:47:59.351Z,98510.00
2023-04-15T10:50:29.896Z,98509.00
2023-04-15T10:52:58.465Z,98505.00
2023-04-15T10:55:28.417Z,98505.00
2023-04-15T10:58:02.338Z,98504.00
2023-04-15T11:00:32.358Z,98505.00
2023-04-15T11:03:07.320Z,98490.00
2023-04-15T11:05:52.655Z,98487.00
2023-04-15T11:08:21.966Z,98513.00
2023-04-15T11:10:57.548Z,98491.00
2023-04-15T11:13:31.725Z,98517.00
2023-04-15T11:16:02.569Z,98525.00
2023-04-15T11:18:33.635Z,98534.00
2023-04-15T11:21:05.458Z,98534.00
2023-04-15T11:23:47.282Z,98510.00
2023-04-15T11:26:15.765Z,98519.00
2023-04-15T11:28:46.425Z,98526.00
2023-04-15T11:31:16.552Z,98527.00
2023-04-15T11:33:54.934Z,98515.00
2023-04-15T11:36:27.080Z,98525.00
2023-04-15T11:38:55.484Z,98539.00
2023-04-15T11:41:24.291Z,98539.00
2023-04-15T11:43:54.204Z,98537.00
2023-04-15T11:46:22.704Z,98540.00
2023-04-15T11:48:50.844Z,98541.00
2023-04-15T11:51:20.827Z,98550.00
2023-04-15T11:53:52.068Z,98549.00
2023-04-15T11:56:22.687Z,98548.00
2023-04-15T11:58:56.961Z,98547.00
2023-04-15T12:01:32.779Z,98556.00
2023-04-15T12:04:01.546Z,98569.00
2023-04-15T12:06:36.801Z,98577.00
2023-04-15T12:09:13.835Z,98562.00
2023-04-15T12:11:47.095Z,98579.00
2023-04-15T12:14:26.724Z,98571.00
2023-04-15T12:16:58.512Z,98575.00
2023-04-15T12:19:28.890Z,98594.00
2023-04-15T12:22:01.298Z,98582.00
2023-04-15T12:24:32.796Z,98597.00
2023-04-15T12:27:04.377Z,98580.00
2023-04-15T12:29:35.623Z,98602.00
2023-04-15T12:32:08.517Z,98606.00
2023-04-15T12:34:38.320Z,98609.00
2023-04-15T12:37:09.436Z,98609.00
2023-04-15T12:39:39.199Z,98606.00
2023-04-15T12:42:08.300Z,98614.00
2023-04-15T12:44:40.905Z,98600.00
2023-04-15T12:47:11.419Z,98620.00
2023-04-15T12:49:40.127Z,98623.00
2023-04-15T12:52:08.463Z,98622.00
2023-04-15T12:54:36.577Z,98618.00
2023-04-15T12:57:07.138Z,98625.00
2023-04-15T12:59:37.457Z,98615.00
2023-04-15T13:02:05.680Z,98639.00
2023-04-15T13:04:33.807Z,98639.00
2023-04-15T13:07:03.393Z,98641.00
2023-04-15T13:09:31.287Z,98641.00
2023-04-15T13:11:59.244Z,98641.00
2023-04-15T13:14:27.970Z,98640.00
2023-04-15T13:16:57.956Z,98649.00
2023-04-15T13:19:25.952Z,98647.00
2023-04-15T13:21:53.866Z,98656.00
2023-04-15T13:24:21.722Z,98658.00
2023-04-15T13:26:50.519Z,98657.00
2023-04-15T13:29:18.434Z,98665.00
2023-04-15T13:31:46.382Z,98661.00
2023-04-15T13:34:15.582Z,98667.00
2023-04-15T13:36:43.459Z,98661.00
2023-04-15T13:39:11.317Z,98667.00
2023-04-15T13:41:39.246Z,98666.00
2023-04-15T13:44:07.310Z,98668.00
2023-04-15T13:46:35.430Z,98673.00
2023-04-15T13:49:03.617Z,98665.00
2023-04-15T13:51:32.889Z,98677.00
2023-04-15T13:54:00.780Z,98685.00
2023-04-15T13:56:28.665Z,98676.00
2023-04-15T13:59:02.186Z,98679.00
2023-04-15T14:01:30.547Z,98685.00
2023-04-15T14:03:58.536Z,98686.00
2023-04-15T14:06:27.171Z,98695.00
2023-04-15T14:08:56.642Z,98694.00
2023-04-15T14:11:24.552Z,98696.00
2023-04-15T14:13:52.382Z,98708.00
2023-04-15T14:16:20.319Z,98697.00
2023-04-15T14:18:48.201Z,98703.00
2023-04-15T14:21:16.064Z,98710.00
2023-04-15T14:23:44.535Z,98718.00
2023-04-15T14:26:14.602Z,98714.00
2023-04-15T14:28:44.848Z,98719.00
2023-04-15T14:31:13.297Z,98721.00
2023-04-15T14:33:41.450Z,98730.00
2023-04-15T14:36:10.323Z,98729.00
2023-04-15T14:38:39.841Z,98726.00
2023-04-15T14:41:08.614Z,98739.00
2023-04-15T14:43:38.410Z,98739.00
2023-04-15T14:46:08.473Z,98742.00
2023-04-15T14:48:36.550Z,98747.00
2023-04-15T14:51:04.799Z,98751.00
2023-04-15T14:53:32.904Z,98757.00
2023-04-15T14:56:00.927Z,98761.00
2023-04-15T14:58:28.756Z,98751.00
2023-04-15T15:00:58.032Z,98756.00
2023-04-15T15:03:26.107Z,98760.00
2023-04-15T15:05:54.295Z,98775.00
2023-04-15T15:08:22.228Z,98777.00
2023-04-15T15:10:50.204Z,98776.00
2023-04-15T15:13:19.738Z,98772.00
2023-04-15T15:15:49.237Z,98783.00
2023-04-15T15:18:19.694Z,98783.00
2023-04-15T15:20:47.922Z,98784.00
2023-04-15T15:23:15.909Z,98799.00
2023-04-15T15:25:44.524Z,98799.00
2023-04-15T15:28:13.000Z,98810.00
2023-04-15T15:30:41.018Z,98803.00
2023-04-15T15:33:08.868Z,98808.00
2023-04-15T15:35:38.370Z,98814.00
2023-04-15T15:38:06.380Z,98808.00
2023-04-15T15:40:34.462Z,98821.00
2023-04-15T15:43:02.317Z,98817.00
2023-04-15T15:45:30.545Z,98815.00
2023-04-15T15:47:59.227Z,98815.00
2023-04-15T15:50:27.346Z,98824.00
2023-04-15T15:52:58.478Z,98827.00
2023-04-15T15:55:27.174Z,98824.00
2023-04-15T15:57:55.185Z,98831.00
2023-04-15T16:00:23.620Z,98834.00
2023-04-15T16:05:22.391Z,98843.00
2023-04-15T16:07:50.306Z,98846.00
2023-04-15T16:10:19.586Z,98843.00
2023-04-15T16:12:47.719Z,98847.00
2023-04-15T16:15:15.659Z,98842.00
2023-04-15T16:17:43.631Z,98847.00
2023-04-15T16:20:11.962Z,98843.00
2023-04-15T16:22:40.656Z,98844.00
2023-04-15T16:25:09.483Z,98844.00
2023-04-15T16:27:54.586Z,98851.00
2023-04-15T16:30:28.802Z,98862.00
2023-04-15T16:32:57.634Z,98853.00
2023-04-15T16:35:25.780Z,98864.00
2023-04-15T16:37:53.688Z,98861.00
2023-04-15T16:40:21.628Z,98865.00
2023-04-15T16:42:50.948Z,98871.00
2023-04-15T16:45:19.444Z,98878.00
2023-04-15T16:47:47.341Z,98878.00
2023-04-15T16:50:15.254Z,98878.00
2023-04-15T16:52:43.320Z,98886.00
2023-04-15T16:55:11.247Z,98885.00
2023-04-15T16:58:00.512Z,98897.00
2023-04-15T17:00:29.218Z,98884.00
2023-04-15T17:02:57.560Z,98887.00
2023-04-15T17:05:27.229Z,98897.00
2023-04-15T17:07:55.409Z,98902.00
2023-04-15T17:10:23.365Z,98902.00
2023-04-15T17:12:52.009Z,98913.00
2023-04-15T17:15:20.556Z,98912.00
2023-04-15T17:17:49.878Z,98921.00
2023-04-15T17:20:18.284Z,98916.00
2023-04-15T17:22:47.106Z,98913.00
2023-04-15T17:25:15.881Z,98932.00
2023-04-15T17:27:43.845Z,98927.00
2023-04-15T17:30:11.972Z,98928.00
2023-04-15T17:32:40.327Z,98934.00
2023-04-15T17:35:11.081Z,98944.00
2023-04-15T17:37:39.146Z,98948.00
2023-04-15T17:40:09.049Z,98953.00
2023-04-15T17:42:37.060Z,98947.00
2023-04-15T17:45:05.647Z,98954.00
2023-04-15T17:47:33.673Z,98961.00
2023-04-15T17:50:01.714Z,98964.00
2023-04-15T17:52:30.918Z,98966.00
2023-04-15T17:54:58.966Z,98967.00
2023-04-15T17:57:27.087Z,98973.00
2023-04-15T17:59:55.139Z,98979.00
2023-04-15T18:02:23.207Z,98978.00
2023-04-15T18:04:51.443Z,98984.00
2023-04-15T18:07:19.648Z,98988.00
2023-04-15T18:09:50.469Z,98984.00
2023-04-15T18:12:18.523Z,98987.00
2023-04-15T18:14:46.407Z,98996.00
2023-04-15T18:17:14.531Z,98995.00
2023-04-15T18:19:43.447Z,99004.00
2023-04-15T18:22:11.550Z,99007.00
2023-04-15T18:24:39.564Z,99007.00
2023-04-15T18:27:08.822Z,99012.00
2023-04-15T18:29:37.146Z,99025.00
2023-04-15T18:32:05.405Z,99006.00
2023-04-15T18:34:33.429Z,99018.00
2023-04-15T18:37:02.207Z,99027.00
2023-04-15T18:39:30.766Z,99015.00
2023-04-15T18:41:58.986Z,99027.00
2023-04-15T18:44:29.471Z,99033.00
2023-04-15T18:46:57.419Z,99030.00
2023-04-15T18:49:27.184Z,99038.00
2023-04-15T18:51:55.531Z,99040.00
2023-04-15T18:54:23.421Z,99041.00
2023-04-15T18:56:52.678Z,99037.00
2023-04-15T18:59:30.300Z,99040.00
2023-04-15T19:02:01.168Z,99037.00
2023-04-15T19:04:29.811Z,99043.00
2023-04-15T19:06:58.886Z,99048.00
2023-04-15T19:09:27.522Z,99050.00
2023-04-15T19:11:56.767Z,99049.00
2023-04-15T19:14:24.823Z,99051.00
2023-04-15T19:16:52.947Z,99053.00
2023-04-15T19:19:22.175Z,99055.00
2023-04-15T19:21:50.429Z,99066.00
2023-04-15T19:24:19.796Z,99063.00
2023-04-15T19:26:51.048Z,99063.00
2023-04-15T19:29:19.878Z,99070.00
2023-04-15T19:31:47.840Z,99076.00
2023-04-15T19:34:15.995Z,99078.00
2023-04-15T19:36:45.436Z,99085.00
2023-04-15T19:39:13.683Z,99089.00
2023-04-15T19:41:41.634Z,99085.00
2023-04-15T19:44:09.534Z,99092.00
2023-04-15T19:46:37.596Z,99095.00
2023-04-15T19:49:06.166Z,99098.00
2023-04-15T19:51:34.432Z,99099.00
2023-04-15T19:54:03.765Z,99096.00
2023-04-15T19:56:34.190Z,99088.00
2023-04-15T19:59:02.660Z,99104.00
2023-04-15T20:01:30.918Z,99106.00
2023-04-15T20:03:59.545Z,99104.00
2023-04-15T20:06:28.449Z,99104.00
2023-04-15T20:08:56.440Z,99103.00
2023-04-15T20:12:46.011Z,99109.00
2023-04-15T20:14:18.476Z,99112.00
2023-04-15T20:16:46.392Z,99118.00
2023-04-15T20:19:14.616Z,99118.00
2023-04-15T20:21:42.713Z,99122.00
2023-04-15T20:24:11.991Z,99120.00
2023-04-15T20:26:41.264Z,99122.00
2023-04-15T20:29:09.267Z,99124.00
2023-04-15T20:31:37.449Z,99129.00
2023-04-15T20:34:05.544Z,99127.00
2023-04-15T20:36:33.551Z,99120.00
2023-04-15T20:39:01.596Z,99135.00
2023-04-15T20:41:29.656Z,99130.00
2023-04-15T20:43:58.913Z,99129.00
2023-04-15T20:46:27.683Z,99115.00
2023-04-15T20:48:56.593Z,99128.00
2023-04-15T20:51:24.505Z,99125.00
2023-04-15T20:53:52.397Z,99128.00
2023-04-15T20:56:20.315Z,99133.00
2023-04-15T20:58:48.272Z,99142.00
2023-04-15T21:01:17.638Z,99140.00
2023-04-15T21:03:46.084Z,99148.00
2023-04-15T21:06:14.030Z,99148.00
2023-04-15T21:08:42.321Z,99146.00
2023-04-15T21:11:10.377Z,99147.00
2023-04-15T21:13:38.414Z,99153.00
2023-04-15T21:16:06.700Z,99153.00
2023-04-15T21:18:35.963Z,99161.00
2023-04-15T21:21:04.212Z,99169.00
2023-04-15T21:23:35.829Z,99174.00
2023-04-15T21:26:03.839Z,99175.00
2023-04-15T21:28:31.757Z,99179.00
2023-04-15T21:31:00.295Z,99176.00
2023-04-15T21:33:28.288Z,99180.00
2023-04-15T21:35:57.616Z,99180.00
2023-04-15T21:38:25.732Z,99180.00
2023-04-15T21:40:53.716Z,99187.00
2023-04-15T21:43:22.822Z,99188.00
2023-04-15T21:46:23.124Z,99186.00
2023-04-15T21:48:38.512Z,99197.00
2023-04-15T21:51:09.460Z,99200.00
2023-04-15T21:53:37.267Z,99201.00
2023-04-15T21:56:05.783Z,99199.00
2023-04-15T21:58:33.618Z,99203.00
2023-04-15T22:01:01.597Z,99204.00
2023-04-15T22:03:33.422Z,99202.00
2023-04-15T22:06:01.818Z,99210.00
2023-04-15T22:08:38.741Z,99213.00
2023-04-15T22:11:09.502Z,99215.00
2023-04-15T22:13:37.630Z,99225.00
2023-04-15T22:16:05.817Z,99220.00
2023-04-15T22:18:33.730Z,99225.00
2023-04-15T22:21:02.492Z,99232.00
2023-04-15T22:23:31.695Z,99224.00
2023-04-15T22:26:00.723Z,99223.00
2023-04-15T22:28:28.639Z,99224.00
2023-04-15T22:30:57.981Z,99231.00
2023-04-15T22:33:25.964Z,99237.00
2023-04-15T22:35:53.822Z,99232.00
2023-04-15T22:38:21.640Z,99235.00
2023-04-15T22:40:51.731Z,99238.00
2023-04-15T22:43:19.576Z,99234.00
2023-04-15T22:45:50.601Z,99248.00
2023-04-15T22:48:18.618Z,99245.00
2023-04-15T22:50:46.628Z,99244.00
2023-04-15T22:53:16.343Z,99260.00
2023-04-15T22:55:46.688Z,99250.00
2023-04-15T22:58:17.053Z,99251.00
2023-04-15T23:00:45.357Z,99262.00
2023-04-15T23:03:13.332Z,99250.00
2023-04-15T23:05:41.668Z,99262.00
2023-04-15T23:08:09.586Z,99269.00
2023-04-15T23:10:39.868Z,99271.00
2023-04-15T23:13:07.737Z,99262.00
2023-04-15T23:15:37.127Z,99265.00
2023-04-15T23:18:05.176Z,99262.00
2023-04-15T23:20:35.294Z,99261.00
2023-04-15T23:23:03.290Z,99270.00
2023-04-15T23:25:31.101Z,99265.00
2023-04-15T23:27:58.975Z,99265.00
2023-04-15T23:30:26.853Z,99268.00
2023-04-15T23:32:57.905Z,99266.00
2023-04-15T23:35:27.153Z,99276.00
2023-04-15T23:37:55.261Z,99274.00
2023-04-15T23:40:23.101Z,99270.00
2023-04-15T23:42:51.756Z,99274.00
2023-04-15T23:45:19.573Z,99274.00
2023-04-15T23:47:47.480Z,99268.00
2023-04-15T23:50:16.746Z,99266.00
2023-04-15T23:52:44.724Z,99271.00
2023-04-15T23:55:12.584Z,99274.00
2023-04-15T23:57:40.972Z,99280.00
